Time;durP1;ratioP1;P1;durP2;ratioP2;P2;SDS_P1;SDS_P2;PMS_P1;PMS_P2;Temp;Humidity;BMP_temperature;BMP_pressure;BME280_temperature;BME280_humidity;BME280_pressure;Samples;Min_cycle;Max_cycle;Signal;HPM_P1;HPM_P2
2023/01/21 00:00:10;;;;;;;32.53;18.50;;;;;;;;;;5034720;28;20231;-82
2023/01/21 00:02:37;;;;;;;27.33;18.00;;;;;;;;;;5034534;28;20230;-82
2023/01/21 00:05:04;;;;;;;29.73;18.07;;;;;;;;;;5047522;28;20237;-82
2023/01/21 00:07:31;;;;;;;28.50;18.53;;;;;;;;;;5054657;28;20694;-82
2023/01/21 00:09:58;;;;;;;29.90;19.33;;;;;;;;;;5054292;28;20225;-83
2023/01/21 00:12:25;;;;;;;28.83;18.73;;;;;;;;;;5037951;28;20213;-82
2023/01/21 00:14:52;;;;;;;31.07;19.93;;;;;;;;;;5034423;28;20237;-82
2023/01/21 00:17:20;;;;;;;30.23;19.43;;;;;;;;;;5034696;28;20691;-82
2023/01/21 00:19:47;;;;;;;36.40;20.10;;;;;;;;;;5034032;28;20238;-82
2023/01/21 00:22:14;;;;;;;31.33;19.70;;;;;;;;;;5034313;28;20208;-82
2023/01/21 00:24:41;;;;;;;32.33;20.30;;;;;;;;;;5034161;28;20246;-82
2023/01/21 00:27:09;;;;;;;32.63;19.53;;;;;;;;;;5034548;28;20207;-82
2023/01/21 00:29:36;;;;;;;29.90;19.27;;;;;;;;;;5034151;28;20199;-82
2023/01/21 00:32:03;;;;;;;34.90;20.43;;;;;;;;;;5034422;28;20213;-82
2023/01/21 00:34:31;;;;;;;34.03;20.23;;;;;;;;;;5034104;28;20222;-82
2023/01/21 00:36:58;;;;;;;33.77;20.57;;;;;;;;;;5034366;28;20210;-82
2023/01/21 00:39:25;;;;;;;31.93;20.27;;;;;;;;;;5033787;28;20230;-82
2023/01/21 00:41:52;;;;;;;33.07;20.30;;;;;;;;;;5033867;28;20209;-82
2023/01/21 00:44:20;;;;;;;34.30;20.07;;;;;;;;;;5034165;28;20226;-82
2023/01/21 00:46:47;;;;;;;38.63;20.23;;;;;;;;;;5033120;28;20348;-82
2023/01/21 00:49:14;;;;;;;29.60;19.33;;;;;;;;;;5034334;28;20210;-82
2023/01/21 00:51:42;;;;;;;30.93;20.53;;;;;;;;;;5033634;28;20238;-84
2023/01/21 00:54:09;;;;;;;29.23;20.40;;;;;;;;;;5034109;28;20237;-82
2023/01/21 00:56:36;;;;;;;33.70;21.60;;;;;;;;;;5033323;28;20238;-82
2023/01/21 00:59:03;;;;;;;28.83;20.10;;;;;;;;;;5034073;28;20222;-82
2023/01/21 01:01:33;;;;;;;27.47;18.93;;;;;;;;;;5033207;28;20231;-82
2023/01/21 01:04:00;;;;;;;33.17;20.93;;;;;;;;;;5033898;28;20292;-82
2023/01/21 01:06:27;;;;;;;31.23;20.27;;;;;;;;;;5033293;28;20725;-82
2023/01/21 01:08:57;;;;;;;32.40;19.40;;;;;;;;;;5034152;28;20222;-82
2023/01/21 01:11:25;;;;;;;28.87;18.43;;;;;;;;;;5033065;28;20326;-82
2023/01/21 01:13:52;;;;;;;39.40;20.67;;;;;;;;;;5033712;28;20231;-82
2023/01/21 01:16:20;;;;;;;33.33;19.17;;;;;;;;;;5032704;28;20233;-82
2023/01/21 01:18:47;;;;;;;31.73;19.33;;;;;;;;;;5033384;28;20316;-82
2023/01/21 01:21:16;;;;;;;32.80;20.10;;;;;;;;;;5032940;28;20342;-82
2023/01/21 01:23:43;;;;;;;29.23;18.13;;;;;;;;;;5033107;28;20234;-82
2023/01/21 01:26:13;;;;;;;30.07;18.80;;;;;;;;;;5032753;28;20237;-82
2023/01/21 01:28:40;;;;;;;31.00;19.40;;;;;;;;;;5033466;28;20202;-83
2023/01/21 01:31:08;;;;;;;33.07;19.37;;;;;;;;;;5032978;28;20249;-82
2023/01/21 01:33:35;;;;;;;30.10;19.37;;;;;;;;;;5033206;28;20234;-82
2023/01/21 01:36:03;;;;;;;32.70;19.90;;;;;;;;;;5032646;28;20238;-82
2023/01/21 01:38:30;;;;;;;33.07;19.20;;;;;;;;;;5032948;28;20223;-83
2023/01/21 01:40:57;;;;;;;31.40;19.07;;;;;;;;;;5032698;28;20729;-83
2023/01/21 01:43:27;;;;;;;30.03;18.53;;;;;;;;;;5032932;28;20241;-83
2023/01/21 01:45:54;;;;;;;28.63;18.33;;;;;;;;;;5032457;28;20249;-83
2023/01/21 01:48:24;;;;;;;30.50;18.13;;;;;;;;;;5033070;28;20205;-82
2023/01/21 01:50:51;;;;;;;30.30;18.40;;;;;;;;;;5032713;28;20594;-83
2023/01/21 01:53:20;;;;;;;29.23;19.23;;;;;;;;;;5045166;28;20218;-83
2023/01/21 01:55:47;;;;;;;33.53;19.17;;;;;;;;;;5052449;28;20238;-83
2023/01/21 01:58:16;;;;;;;34.50;19.40;;;;;;;;;;5052784;28;20194;-83
2023/01/21 02:00:45;;;;;;;26.83;17.10;;;;;;;;;;5052256;28;20721;-83
2023/01/21 02:05:56;;;;;;;31.43;18.23;;;;;;;;;;5052143;28;20289;-83
2023/01/21 02:08:24;;;;;;;32.63;18.50;;;;;;;;;;5028822;28;20206;-83
2023/01/21 02:10:54;;;;;;;29.40;19.13;;;;;;;;;;5012829;28;20234;-83
2023/01/21 02:13:22;;;;;;;33.03;19.93;;;;;;;;;;5012831;28;20266;-83
2023/01/21 02:15:55;;;;;;;30.83;18.47;;;;;;;;;;5012408;28;20245;-83
2023/01/21 02:18:28;;;;;;;31.43;18.33;;;;;;;;;;5030523;28;20202;-83
2023/01/21 02:21:14;;;;;;;35.17;18.57;;;;;;;;;;5032243;28;20647;-83
2023/01/21 02:23:58;;;;;;;30.50;18.33;;;;;;;;;;5031982;28;20682;-83
2023/01/21 02:26:51;;;;;;;29.73;17.97;;;;;;;;;;5031415;28;20245;-83
2023/01/21 02:29:35;;;;;;;31.10;18.13;;;;;;;;;;5031941;28;20195;-83
2023/01/21 02:32:17;;;;;;;26.87;17.47;;;;;;;;;;5031678;28;20230;-84
2023/01/21 02:34:49;;;;;;;31.17;18.00;;;;;;;;;;5032030;28;20241;-83
2023/01/21 02:37:19;;;;;;;27.10;16.33;;;;;;;;;;5032344;28;20187;-84
2023/01/21 02:40:04;;;;;;;26.90;16.13;;;;;;;;;;5031588;28;20327;-83
2023/01/21 02:42:35;;;;;;;29.77;17.67;;;;;;;;;;5031336;28;20218;-83
2023/01/21 02:45:05;;;;;;;25.37;15.47;;;;;;;;;;5031359;28;20709;-83
2023/01/21 02:47:35;;;;;;;28.60;16.73;;;;;;;;;;5031015;28;20210;-84
2023/01/21 02:50:06;;;;;;;26.50;15.57;;;;;;;;;;5031459;28;20242;-84
2023/01/21 02:52:33;;;;;;;25.90;16.47;;;;;;;;;;5032821;28;20248;-83
2023/01/21 02:55:01;;;;;;;27.80;16.17;;;;;;;;;;5032298;28;20228;-84
2023/01/21 02:57:35;;;;;;;25.03;15.07;;;;;;;;;;5032329;28;20207;-84
2023/01/21 03:00:03;;;;;;;21.93;15.27;;;;;;;;;;5031923;28;20721;-84
2023/01/21 03:02:41;;;;;;;23.00;14.60;;;;;;;;;;5031799;28;20225;-84
2023/01/21 03:05:11;;;;;;;19.37;13.30;;;;;;;;;;5032034;28;20241;-85
2023/01/21 03:07:42;;;;;;;26.23;13.73;;;;;;;;;;5032283;28;20631;-85
2023/01/21 03:10:11;;;;;;;19.83;13.90;;;;;;;;;;5031569;28;20717;-85
2023/01/21 03:12:42;;;;;;;21.53;13.90;;;;;;;;;;5032038;28;20222;-85
2023/01/21 03:18:00;;;;;;;24.57;16.13;;;;;;;;;;5032106;28;20296;-85
2023/01/21 03:20:30;;;;;;;24.20;14.27;;;;;;;;;;5031640;28;20273;-85
2023/01/21 03:23:01;;;;;;;23.07;14.17;;;;;;;;;;5032108;28;20233;-84
2023/01/21 03:25:30;;;;;;;20.07;13.30;;;;;;;;;;5031932;28;20728;-85
2023/01/21 03:27:58;;;;;;;21.90;15.13;;;;;;;;;;5032170;28;20236;-85
2023/01/21 03:30:26;;;;;;;25.10;14.20;;;;;;;;;;5032185;28;20234;-85
2023/01/21 03:32:55;;;;;;;25.43;15.37;;;;;;;;;;5032940;28;20244;-85
2023/01/21 03:35:24;;;;;;;22.77;13.73;;;;;;;;;;5031843;28;20233;-85
2023/01/21 03:37:55;;;;;;;19.00;13.30;;;;;;;;;;5032426;28;20209;-85
2023/01/21 03:40:24;;;;;;;20.57;14.07;;;;;;;;;;5031787;28;20246;-85
2023/01/21 03:42:55;;;;;;;21.37;14.13;;;;;;;;;;5031488;28;20613;-85
2023/01/21 03:45:24;;;;;;;20.53;12.63;;;;;;;;;;5031128;28;20227;-86
2023/01/21 03:47:55;;;;;;;18.50;12.10;;;;;;;;;;5032076;28;20229;-86
2023/01/21 03:50:24;;;;;;;16.93;12.47;;;;;;;;;;5031239;28;20744;-85
2023/01/21 03:52:51;;;;;;;18.97;12.40;;;;;;;;;;5020717;28;20229;-86
2023/01/21 03:55:19;;;;;;;19.30;12.23;;;;;;;;;;5031501;28;20242;-85
2023/01/21 03:57:47;;;;;;;22.10;13.37;;;;;;;;;;5031764;28;20213;-85
2023/01/21 04:00:14;;;;;;;14.67;10.70;;;;;;;;;;5031618;28;20240;-85
2023/01/21 04:02:41;;;;;;;16.90;11.37;;;;;;;;;;5019009;28;20217;-86
2023/01/21 04:05:09;;;;;;;17.00;12.80;;;;;;;;;;5030923;28;20237;-85
2023/01/21 04:07:36;;;;;;;15.93;11.37;;;;;;;;;;5031307;28;20202;-86
2023/01/21 04:10:03;;;;;;;16.50;11.10;;;;;;;;;;5031297;28;20759;-86
2023/01/21 04:12:32;;;;;;;19.27;12.03;;;;;;;;;;5031879;28;20217;-86
2023/01/21 04:14:59;;;;;;;14.80;11.23;;;;;;;;;;5031359;28;20233;-85
2023/01/21 04:17:27;;;;;;;16.07;11.43;;;;;;;;;;5031974;28;20216;-86
2023/01/21 04:19:54;;;;;;;19.10;12.07;;;;;;;;;;5031038;28;20235;-86
2023/01/21 04:22:22;;;;;;;19.37;11.90;;;;;;;;;;5032420;28;20222;-86
2023/01/21 04:24:49;;;;;;;19.83;11.00;;;;;;;;;;5035565;28;20319;-87
2023/01/21 04:27:16;;;;;;;17.13;12.17;;;;;;;;;;5036067;28;20205;-87
2023/01/21 04:29:44;;;;;;;16.50;11.17;;;;;;;;;;5035328;28;20240;-88
2023/01/21 04:32:12;;;;;;;16.37;10.67;;;;;;;;;;5035666;28;20207;-87
2023/01/21 04:34:39;;;;;;;16.20;11.10;;;;;;;;;;5035667;28;20249;-87
2023/01/21 04:37:06;;;;;;;14.20;10.83;;;;;;;;;;5035612;28;20205;-87
2023/01/21 04:39:33;;;;;;;16.77;11.10;;;;;;;;;;5035485;28;20316;-86
2023/01/21 04:42:00;;;;;;;15.30;10.87;;;;;;;;;;5035747;28;20219;-86
2023/01/21 04:44:27;;;;;;;16.87;11.23;;;;;;;;;;5035002;28;20224;-87
2023/01/21 04:46:56;;;;;;;17.63;11.00;;;;;;;;;;5035241;28;20207;-86
2023/01/21 04:49:23;;;;;;;15.77;10.73;;;;;;;;;;5035251;28;20202;-87
2023/01/21 04:51:50;;;;;;;15.40;10.87;;;;;;;;;;5036037;28;20230;-87
2023/01/21 04:54:17;;;;;;;16.87;11.53;;;;;;;;;;5051100;28;20228;-86
2023/01/21 04:56:44;;;;;;;15.13;10.60;;;;;;;;;;5058743;28;20231;-86
2023/01/21 04:59:11;;;;;;;15.17;11.30;;;;;;;;;;5058507;28;20200;-86
2023/01/21 05:01:38;;;;;;;14.20;10.70;;;;;;;;;;5057580;28;20236;-86
2023/01/21 05:04:07;;;;;;;14.97;10.70;;;;;;;;;;5058520;28;20212;-86
2023/01/21 05:06:34;;;;;;;15.93;10.53;;;;;;;;;;5053256;28;20742;-87
2023/01/21 05:09:01;;;;;;;16.40;11.03;;;;;;;;;;5041313;28;20669;-87
2023/01/21 05:11:28;;;;;;;15.80;11.10;;;;;;;;;;5036081;28;20227;-87
2023/01/21 05:13:55;;;;;;;15.03;10.53;;;;;;;;;;5044783;28;20632;-87
2023/01/21 05:16:22;;;;;;;15.97;10.33;;;;;;;;;;5039909;28;20888;-86
2023/01/21 05:18:49;;;;;;;13.30;10.03;;;;;;;;;;5036957;28;20214;-87
2023/01/21 05:21:17;;;;;;;14.50;10.63;;;;;;;;;;5034724;28;20238;-87
2023/01/21 05:23:44;;;;;;;14.27;10.23;;;;;;;;;;5034587;28;20237;-87
2023/01/21 05:26:11;;;;;;;14.23;10.23;;;;;;;;;;5034050;28;20247;-87
2023/01/21 05:28:38;;;;;;;15.40;10.17;;;;;;;;;;5034497;28;20202;-86
2023/01/21 05:31:06;;;;;;;17.77;10.97;;;;;;;;;;5034142;28;20231;-86
2023/01/21 05:33:33;;;;;;;16.30;11.30;;;;;;;;;;5033788;28;20238;-87
2023/01/21 05:36:01;;;;;;;17.67;10.60;;;;;;;;;;5033964;28;20234;-87
2023/01/21 05:38:29;;;;;;;15.67;9.77;;;;;;;;;;5033949;28;20207;-86
2023/01/21 05:40:57;;;;;;;14.37;10.23;;;;;;;;;;5033388;28;20226;-86
2023/01/21 05:43:24;;;;;;;13.87;10.27;;;;;;;;;;5034250;28;20276;-86
2023/01/21 05:45:51;;;;;;;15.00;11.23;;;;;;;;;;5033397;28;20231;-86
2023/01/21 05:48:18;;;;;;;17.10;10.87;;;;;;;;;;5044837;28;20202;-85
2023/01/21 05:50:46;;;;;;;13.37;9.90;;;;;;;;;;5053215;28;20648;-86
2023/01/21 05:53:13;;;;;;;17.47;11.17;;;;;;;;;;5053545;28;20225;-86
2023/01/21 05:55:41;;;;;;;18.10;11.30;;;;;;;;;;5052746;28;20234;-86
2023/01/21 05:58:08;;;;;;;16.83;11.33;;;;;;;;;;5053669;28;20210;-86
2023/01/21 06:00:35;;;;;;;17.70;11.33;;;;;;;;;;5053265;28;20230;-86
2023/01/21 06:03:03;;;;;;;18.53;11.80;;;;;;;;;;5053441;28;20590;-86
2023/01/21 06:05:30;;;;;;;16.00;11.67;;;;;;;;;;5052871;28;20226;-86
2023/01/21 06:07:57;;;;;;;18.97;11.27;;;;;;;;;;5053042;28;20212;-86
2023/01/21 06:10:24;;;;;;;20.40;11.70;;;;;;;;;;5052831;28;20229;-86
2023/01/21 06:12:53;;;;;;;20.30;12.23;;;;;;;;;;5053145;28;20233;-86
2023/01/21 06:15:20;;;;;;;18.33;11.47;;;;;;;;;;5049245;28;20226;-87
2023/01/21 06:17:47;;;;;;;20.40;11.67;;;;;;;;;;5032922;28;20203;-87
2023/01/21 06:20:15;;;;;;;18.30;11.37;;;;;;;;;;5032709;28;20234;-87
2023/01/21 06:22:42;;;;;;;20.90;12.70;;;;;;;;;;5032786;28;20262;-87
2023/01/21 06:25:09;;;;;;;18.57;12.40;;;;;;;;;;5032841;28;20234;-88
2023/01/21 06:27:37;;;;;;;21.90;11.77;;;;;;;;;;5032892;28;20217;-87
2023/01/21 06:30:06;;;;;;;18.53;12.17;;;;;;;;;;5032455;28;20337;-85
2023/01/21 06:32:33;;;;;;;19.90;12.37;;;;;;;;;;5032705;28;20218;-87
2023/01/21 06:35:00;;;;;;;22.77;12.47;;;;;;;;;;5032470;28;20233;-86
2023/01/21 06:37:27;;;;;;;21.60;13.30;;;;;;;;;;5032459;28;20548;-86
2023/01/21 06:39:54;;;;;;;18.53;12.03;;;;;;;;;;5032121;28;20724;-87
2023/01/21 06:42:21;;;;;;;22.20;12.77;;;;;;;;;;5032255;28;20311;-84
2023/01/21 06:44:49;;;;;;;17.80;11.23;;;;;;;;;;5031873;28;20238;-84
2023/01/21 06:47:17;;;;;;;20.00;12.70;;;;;;;;;;5032677;28;20194;-85
2023/01/21 06:49:44;;;;;;;21.00;12.90;;;;;;;;;;5032227;28;20272;-85
2023/01/21 06:52:11;;;;;;;22.67;13.73;;;;;;;;;;5032039;28;20207;-87
2023/01/21 06:54:38;;;;;;;21.23;12.57;;;;;;;;;;5031836;28;20209;-88
2023/01/21 06:57:05;;;;;;;22.20;12.50;;;;;;;;;;5032417;28;20218;-88
2023/01/21 06:59:32;;;;;;;22.37;13.67;;;;;;;;;;5031969;28;20221;-87
2023/01/21 07:02:02;;;;;;;24.03;14.47;;;;;;;;;;5032705;28;20199;-87
2023/01/21 07:04:30;;;;;;;20.87;13.50;;;;;;;;;;5012062;28;20219;-87
2023/01/21 07:06:57;;;;;;;20.67;12.50;;;;;;;;;;5030015;28;20215;-85
2023/01/21 07:09:25;;;;;;;23.73;13.10;;;;;;;;;;5031756;28;20213;-86
2023/01/21 07:11:52;;;;;;;20.10;13.27;;;;;;;;;;5036421;28;20210;-85
2023/01/21 07:14:19;;;;;;;26.90;16.33;;;;;;;;;;5031371;28;20245;-85
2023/01/21 07:16:46;;;;;;;27.80;15.50;;;;;;;;;;5031761;28;20203;-85
2023/01/21 07:19:13;;;;;;;24.50;15.00;;;;;;;;;;5032594;28;20213;-85
2023/01/21 07:21:42;;;;;;;22.53;14.27;;;;;;;;;;5031247;28;20234;-85
2023/01/21 07:24:09;;;;;;;20.27;13.43;;;;;;;;;;5013258;28;20262;-85
2023/01/21 07:26:37;;;;;;;18.60;12.37;;;;;;;;;;5013017;28;20242;-87
2023/01/21 07:29:04;;;;;;;22.07;13.57;;;;;;;;;;5013181;28;20549;-86
2023/01/21 07:31:32;;;;;;;21.17;13.80;;;;;;;;;;5011972;28;20759;-85
2023/01/21 07:33:59;;;;;;;23.90;14.23;;;;;;;;;;5012623;28;20245;-85
2023/01/21 07:36:26;;;;;;;25.53;15.30;;;;;;;;;;5012398;28;20235;-84
2023/01/21 07:38:55;;;;;;;24.73;13.93;;;;;;;;;;5018178;28;20248;-87
2023/01/21 07:41:22;;;;;;;22.33;13.93;;;;;;;;;;5032397;28;20321;-83
2023/01/21 07:43:49;;;;;;;22.13;12.93;;;;;;;;;;5034406;28;20222;-84
2023/01/21 07:46:16;;;;;;;23.00;13.77;;;;;;;;;;5041616;28;20254;-84
2023/01/21 07:48:44;;;;;;;25.97;13.87;;;;;;;;;;5052056;28;20677;-84
2023/01/21 07:51:11;;;;;;;22.63;14.23;;;;;;;;;;5052455;28;20230;-84
2023/01/21 07:53:38;;;;;;;25.83;13.90;;;;;;;;;;5052642;28;20225;-85
2023/01/21 07:56:08;;;;;;;22.90;13.93;;;;;;;;;;5052439;28;20237;-84
2023/01/21 07:58:35;;;;;;;26.00;14.50;;;;;;;;;;5056253;28;20285;-85
2023/01/21 08:01:03;;;;;;;26.70;14.93;;;;;;;;;;5057658;28;20237;-84
2023/01/21 08:03:30;;;;;;;22.53;13.47;;;;;;;;;;5057390;28;20258;-84
2023/01/21 08:05:57;;;;;;;24.50;15.70;;;;;;;;;;5055590;28;20233;-84
2023/01/21 08:08:25;;;;;;;24.70;14.43;;;;;;;;;;5056262;28;20193;-84
2023/01/21 08:10:52;;;;;;;28.03;14.80;;;;;;;;;;5055054;28;20256;-84
2023/01/21 08:13:21;;;;;;;24.43;14.30;;;;;;;;;;5055529;28;20717;-84
2023/01/21 08:15:50;;;;;;;28.23;15.37;;;;;;;;;;5055821;28;20234;-84
2023/01/21 08:18:17;;;;;;;32.00;15.90;;;;;;;;;;5056971;28;20210;-84
2023/01/21 08:20:44;;;;;;;25.40;14.77;;;;;;;;;;5058152;28;20244;-84
2023/01/21 08:23:11;;;;;;;24.93;15.27;;;;;;;;;;5059633;28;20230;-84
2023/01/21 08:25:38;;;;;;;25.70;15.33;;;;;;;;;;5056209;28;20241;-85
2023/01/21 08:28:05;;;;;;;24.40;14.77;;;;;;;;;;5056288;28;20209;-85
2023/01/21 08:30:34;;;;;;;27.97;15.27;;;;;;;;;;5044566;28;20230;-84
2023/01/21 08:33:01;;;;;;;29.43;16.30;;;;;;;;;;5035378;28;20227;-85
2023/01/21 08:35:28;;;;;;;28.93;15.93;;;;;;;;;;5034969;28;20245;-88
2023/01/21 08:37:56;;;;;;;27.40;16.10;;;;;;;;;;5036103;28;20214;-88
2023/01/21 08:40:25;;;;;;;30.70;15.10;;;;;;;;;;5034088;28;20304;-85
2023/01/21 08:42:52;;;;;;;30.47;16.37;;;;;;;;;;5034913;28;20230;-87
2023/01/21 08:45:19;;;;;;;27.77;15.70;;;;;;;;;;5034037;28;20249;-84
2023/01/21 08:47:48;;;;;;;25.07;14.97;;;;;;;;;;5035549;28;20206;-84
2023/01/21 08:50:15;;;;;;;27.57;15.67;;;;;;;;;;5035192;28;20721;-82
2023/01/21 08:52:42;;;;;;;28.40;16.10;;;;;;;;;;5035166;28;20230;-84
2023/01/21 08:55:09;;;;;;;31.83;17.47;;;;;;;;;;5034335;28;20234;-82
2023/01/21 08:57:36;;;;;;;28.93;16.73;;;;;;;;;;5034381;28;20210;-82
2023/01/21 09:00:04;;;;;;;26.73;16.20;;;;;;;;;;5034132;28;20609;-81
2023/01/21 09:02:31;;;;;;;32.37;18.67;;;;;;;;;;5033719;28;20244;-81
2023/01/21 09:05:00;;;;;;;28.03;17.60;;;;;;;;;;5033697;28;20703;-82
2023/01/21 09:07:27;;;;;;;29.30;17.27;;;;;;;;;;5033523;28;20659;-84
2023/01/21 09:09:54;;;;;;;29.13;17.80;;;;;;;;;;5033312;28;20234;-84
2023/01/21 09:12:21;;;;;;;32.60;16.73;;;;;;;;;;5033847;28;20194;-84
2023/01/21 09:14:48;;;;;;;30.60;16.17;;;;;;;;;;5033427;28;20729;-84
2023/01/21 09:17:15;;;;;;;32.13;17.30;;;;;;;;;;5034410;28;20212;-84
2023/01/21 09:19:42;;;;;;;30.00;17.77;;;;;;;;;;5033540;28;20241;-84
2023/01/21 09:22:12;;;;;;;27.70;17.70;;;;;;;;;;5033603;28;20242;-84
2023/01/21 09:24:39;;;;;;;26.87;16.57;;;;;;;;;;5033502;28;20891;-88
2023/01/21 09:27:06;;;;;;;32.63;17.67;;;;;;;;;;5033905;28;20548;-87
2023/01/21 09:29:33;;;;;;;32.83;17.47;;;;;;;;;;5033127;28;20691;-86
2023/01/21 09:32:01;;;;;;;30.60;17.97;;;;;;;;;;5033840;28;20203;-87
2023/01/21 09:34:28;;;;;;;27.80;16.87;;;;;;;;;;5032933;28;20235;-86
2023/01/21 09:36:55;;;;;;;25.60;16.30;;;;;;;;;;5042012;28;20210;-87
2023/01/21 09:39:23;;;;;;;33.17;18.10;;;;;;;;;;5039304;28;20546;-87
2023/01/21 09:41:52;;;;;;;27.47;16.20;;;;;;;;;;5033594;28;20226;-88
2023/01/21 09:44:25;;;;;;;24.27;15.80;;;;;;;;;;5032916;28;20590;-87
2023/01/21 09:46:55;;;;;;;26.40;17.10;;;;;;;;;;5032042;28;20206;-86
2023/01/21 09:49:25;;;;;;;30.63;15.57;;;;;;;;;;5032926;28;20183;-89
2023/01/21 09:51:54;;;;;;;27.90;16.73;;;;;;;;;;5033362;28;20206;-87
2023/01/21 09:54:26;;;;;;;28.07;16.77;;;;;;;;;;5032712;28;20220;-88
2023/01/21 09:57:00;;;;;;;28.10;15.73;;;;;;;;;;5033561;28;20183;-87
2023/01/21 09:59:33;;;;;;;27.77;15.60;;;;;;;;;;5033165;28;20214;-88
2023/01/21 10:02:01;;;;;;;30.03;16.40;;;;;;;;;;5033585;28;20233;-88
2023/01/21 10:04:32;;;;;;;26.53;16.03;;;;;;;;;;5032923;28;20242;-87
2023/01/21 10:07:00;;;;;;;28.30;15.87;;;;;;;;;;5033622;28;20199;-88
2023/01/21 10:09:43;;;;;;;23.47;15.57;;;;;;;;;;5032832;28;20210;-88
2023/01/21 10:12:15;;;;;;;24.67;15.63;;;;;;;;;;5033302;28;20207;-88
2023/01/21 10:14:51;;;;;;;26.70;14.87;;;;;;;;;;5032712;28;20248;-89
2023/01/21 10:17:22;;;;;;;23.73;14.73;;;;;;;;;;5033763;28;20190;-90
2023/01/21 10:19:52;;;;;;;24.60;15.30;;;;;;;;;;5032062;28;20242;-88
2023/01/21 10:22:22;;;;;;;24.70;13.67;;;;;;;;;;5032711;28;20215;-88
2023/01/21 10:24:52;;;;;;;29.80;15.57;;;;;;;;;;5032931;28;20240;-88
2023/01/21 10:27:20;;;;;;;25.67;15.30;;;;;;;;;;5032882;28;20849;-87
2023/01/21 10:29:48;;;;;;;24.43;14.63;;;;;;;;;;5032270;28;20241;-87
2023/01/21 10:32:17;;;;;;;25.77;14.43;;;;;;;;;;5032514;28;20199;-86
2023/01/21 10:34:49;;;;;;;24.20;14.50;;;;;;;;;;5031961;28;20230;-87
2023/01/21 10:37:20;;;;;;;25.43;14.03;;;;;;;;;;5032852;28;20193;-87
2023/01/21 10:39:55;;;;;;;25.47;13.50;;;;;;;;;;5034841;28;20240;-93
2023/01/21 10:42:41;;;;;;;24.03;13.40;;;;;;;;;;5034618;28;20234;-91
2023/01/21 10:45:14;;;;;;;24.00;13.80;;;;;;;;;;5034198;28;20262;-92
2023/01/21 10:47:46;;;;;;;33.13;14.87;;;;;;;;;;5035475;28;20218;-91
2023/01/21 10:50:22;;;;;;;24.03;14.10;;;;;;;;;;5034081;28;20616;-91
2023/01/21 10:52:51;;;;;;;19.17;12.73;;;;;;;;;;5034656;28;20224;-93
2023/01/21 10:55:27;;;;;;;20.97;13.10;;;;;;;;;;5034233;28;20233;-93
2023/01/21 10:57:57;;;;;;;24.20;13.30;;;;;;;;;;5034501;28;20272;-93
2023/01/21 11:00:26;;;;;;;25.60;13.00;;;;;;;;;;5033795;28;20233;-92
2023/01/21 11:02:54;;;;;;;17.73;11.63;;;;;;;;;;5033227;28;20240;-94
2023/01/21 11:05:23;;;;;;;22.23;12.77;;;;;;;;;;5035755;28;20772;-93
2023/01/21 11:07:50;;;;;;;23.37;12.90;;;;;;;;;;5033964;28;20204;-93
2023/01/21 11:10:23;;;;;;;21.83;12.60;;;;;;;;;;5033635;28;20705;-93
2023/01/21 11:12:50;;;;;;;21.30;13.10;;;;;;;;;;5035561;28;20220;-94
2023/01/21 11:15:19;;;;;;;21.13;13.03;;;;;;;;;;5040413;28;20241;-90
2023/01/21 11:17:47;;;;;;;22.10;12.83;;;;;;;;;;5048925;28;20198;-92
2023/01/21 11:20:19;;;;;;;22.07;12.93;;;;;;;;;;5048852;28;20228;-93
2023/01/21 11:22:46;;;;;;;18.27;11.30;;;;;;;;;;5034375;28;20541;-92
2023/01/21 11:25:25;;;;;;;19.73;11.83;;;;;;;;;;5015609;28;20662;-92
2023/01/21 11:27:52;;;;;;;18.93;11.90;;;;;;;;;;5014762;28;20190;-92
2023/01/21 11:30:29;;;;;;;20.43;11.83;;;;;;;;;;5018348;28;20237;-92
2023/01/21 11:33:11;;;;;;;21.30;12.20;;;;;;;;;;5029609;28;20221;-95
2023/01/21 11:35:38;;;;;;;19.50;12.27;;;;;;;;;;5036269;28;20574;-90
2023/01/21 11:38:05;;;;;;;15.97;11.17;;;;;;;;;;5036555;28;20396;-90
2023/01/21 11:40:34;;;;;;;17.97;11.07;;;;;;;;;;5036062;28;20640;-89
2023/01/21 11:43:01;;;;;;;17.50;11.77;;;;;;;;;;5036140;28;20701;-90
2023/01/21 11:45:29;;;;;;;21.87;12.43;;;;;;;;;;5035701;28;20246;-90
2023/01/21 11:47:57;;;;;;;25.73;12.53;;;;;;;;;;5036058;28;20208;-90
2023/01/21 11:50:26;;;;;;;24.43;12.93;;;;;;;;;;5035355;28;20728;-91
2023/01/21 11:53:11;;;;;;;19.63;11.87;;;;;;;;;;5035576;28;20213;-91
2023/01/21 11:55:40;;;;;;;18.03;11.17;;;;;;;;;;5035603;28;20237;-90
2023/01/21 11:58:16;;;;;;;17.97;11.37;;;;;;;;;;5036113;28;20678;-91
2023/01/21 12:00:46;;;;;;;18.17;10.60;;;;;;;;;;5035021;28;20719;-90
2023/01/21 12:03:16;;;;;;;21.37;11.30;;;;;;;;;;5034994;28;20236;-90
2023/01/21 12:05:44;;;;;;;18.23;11.40;;;;;;;;;;5035717;28;20263;-92
2023/01/21 12:08:16;;;;;;;21.10;11.20;;;;;;;;;;5036181;28;20201;-90
2023/01/21 12:10:46;;;;;;;17.63;11.27;;;;;;;;;;5035849;28;20240;-91
2023/01/21 12:13:15;;;;;;;14.50;11.00;;;;;;;;;;5054998;28;20229;-91
2023/01/21 12:16:02;;;;;;;15.73;9.07;;;;;;;;;;5046243;28;20245;-90
2023/01/21 12:18:33;;;;;;;17.13;10.90;;;;;;;;;;5035591;28;20618;-90
2023/01/21 12:21:04;;;;;;;16.70;10.63;;;;;;;;;;5034924;28;20727;-91
2023/01/21 12:23:41;;;;;;;16.77;10.30;;;;;;;;;;5034454;28;20225;-90
2023/01/21 12:26:20;;;;;;;16.30;10.07;;;;;;;;;;5029065;28;20234;-89
2023/01/21 12:28:56;;;;;;;12.20;9.23;;;;;;;;;;5025719;28;20579;-89
2023/01/21 12:31:28;;;;;;;13.47;9.77;;;;;;;;;;5053973;28;20240;-90
2023/01/21 12:33:58;;;;;;;17.87;9.90;;;;;;;;;;5035503;28;20229;-90
2023/01/21 12:36:28;;;;;;;16.17;9.37;;;;;;;;;;5034266;28;20241;-91
2023/01/21 12:39:10;;;;;;;13.87;10.33;;;;;;;;;;5035062;28;20409;-90
2023/01/21 12:41:41;;;;;;;18.07;10.30;;;;;;;;;;5033987;28;20244;-91
2023/01/21 12:44:16;;;;;;;20.93;9.93;;;;;;;;;;5034393;28;20221;-91
2023/01/21 12:46:45;;;;;;;18.10;9.90;;;;;;;;;;5035283;28;20216;-91
2023/01/21 12:49:15;;;;;;;14.30;9.90;;;;;;;;;;5039814;28;20210;-90
2023/01/21 12:51:43;;;;;;;16.60;9.47;;;;;;;;;;5057395;28;20313;-90
2023/01/21 12:54:15;;;;;;;14.47;8.73;;;;;;;;;;5058752;28;20225;-92
2023/01/21 12:56:46;;;;;;;15.47;11.10;;;;;;;;;;5056594;28;20233;-92
2023/01/21 12:59:16;;;;;;;14.47;8.80;;;;;;;;;;5058610;28;20201;-92
2023/01/21 13:01:52;;;;;;;12.17;6.63;;;;;;;;;;5055390;28;20270;-90
2023/01/21 13:04:34;;;;;;;13.13;8.77;;;;;;;;;;5058803;28;20226;-89
2023/01/21 13:07:05;;;;;;;10.47;6.90;;;;;;;;;;5049818;28;20187;-91
2023/01/21 13:09:38;;;;;;;14.27;8.23;;;;;;;;;;5074173;28;20205;-91
2023/01/21 13:12:12;;;;;;;12.87;8.13;;;;;;;;;;5078648;28;20220;-91
2023/01/21 13:14:43;;;;;;;13.03;8.23;;;;;;;;;;5078493;28;20251;-91
2023/01/21 13:17:14;;;;;;;18.37;9.33;;;;;;;;;;5059271;28;20194;-90
2023/01/21 13:19:41;;;;;;;12.40;9.17;;;;;;;;;;5058937;28;20230;-90
2023/01/21 13:22:11;;;;;;;12.10;8.27;;;;;;;;;;5058374;28;20223;-90
2023/01/21 13:24:53;;;;;;;10.23;7.03;;;;;;;;;;5057951;28;20210;-90
2023/01/21 13:27:25;;;;;;;12.60;8.07;;;;;;;;;;5059397;28;20188;-90
2023/01/21 13:29:56;;;;;;;10.40;7.87;;;;;;;;;;5056602;28;20229;-90
2023/01/21 13:32:27;;;;;;;9.90;7.60;;;;;;;;;;5045802;28;20182;-90
2023/01/21 13:34:58;;;;;;;8.50;5.60;;;;;;;;;;5056492;28;20243;-88
2023/01/21 13:37:30;;;;;;;10.27;7.13;;;;;;;;;;5058390;28;20201;-89
2023/01/21 13:40:10;;;;;;;8.23;6.27;;;;;;;;;;5053589;28;20214;-88
2023/01/21 13:42:44;;;;;;;8.67;6.53;;;;;;;;;;5077825;28;20216;-89
2023/01/21 13:45:15;;;;;;;9.90;7.93;;;;;;;;;;5073186;28;20234;-88
2023/01/21 13:47:52;;;;;;;12.10;7.73;;;;;;;;;;5054993;28;20209;-88
2023/01/21 13:50:25;;;;;;;11.43;7.67;;;;;;;;;;5047940;28;20230;-88
2023/01/21 13:53:01;;;;;;;3.67;3.47;;;;;;;;;;5053242;28;20211;-90
2023/01/21 13:55:37;;;;;;;11.60;7.87;;;;;;;;;;5054717;28;20224;-90
2023/01/21 13:58:07;;;;;;;9.53;7.30;;;;;;;;;;5055276;28;20182;-90
2023/01/21 14:00:37;;;;;;;7.63;5.77;;;;;;;;;;5052351;28;20237;-89
2023/01/21 14:03:09;;;;;;;12.30;8.10;;;;;;;;;;5053069;28;20254;-91
2023/01/21 14:05:40;;;;;;;8.43;6.37;;;;;;;;;;5037250;28;20238;-89
2023/01/21 14:08:09;;;;;;;8.30;6.73;;;;;;;;;;5034961;28;20191;-89
2023/01/21 14:10:40;;;;;;;9.30;6.87;;;;;;;;;;5034723;28;20238;-90
2023/01/21 14:13:25;;;;;;;9.93;7.30;;;;;;;;;;5036890;28;20223;-90
2023/01/21 14:16:08;;;;;;;9.20;6.90;;;;;;;;;;5017259;28;20227;-89
2023/01/21 14:18:41;;;;;;;9.57;6.90;;;;;;;;;;5034647;28;20203;-89
2023/01/21 14:21:16;;;;;;;9.97;7.20;;;;;;;;;;5034911;28;20230;-89
2023/01/21 14:23:56;;;;;;;10.70;7.20;;;;;;;;;;5034014;28;20233;-90
2023/01/21 14:26:30;;;;;;;8.13;6.90;;;;;;;;;;5014834;28;20241;-89
2023/01/21 14:29:01;;;;;;;9.77;7.77;;;;;;;;;;5014405;28;20202;-90
2023/01/21 14:31:34;;;;;;;9.87;6.77;;;;;;;;;;5013163;28;20249;-90
2023/01/21 14:34:03;;;;;;;10.67;6.63;;;;;;;;;;5027130;28;20729;-90
2023/01/21 14:36:36;;;;;;;9.67;6.97;;;;;;;;;;5032280;28;20577;-89